Time;durP1;ratioP1;P1;durP2;ratioP2;P2;SDS_P1;SDS_P2;PMS_P1;PMS_P2;Temp;Humidity;BMP_temperature;BMP_pressure;BME280_temperature;BME280_humidity;BME280_pressure;Samples;Min_cycle;Max_cycle;Signal;HPM_P1;HPM_P2
2023/03/08 00:00:13;;;;;;;9.90;4.88;;;3.90;99.90;;;;;;5018539;28;20057;-68
2023/03/08 00:02:38;;;;;;;8.70;4.43;;;4.00;99.90;;;;;;5019832;28;20033;-66
2023/03/08 00:05:05;;;;;;;7.22;4.50;;;4.10;99.90;;;;;;5021432;28;20120;-65
2023/03/08 00:07:31;;;;;;;9.13;4.22;;;4.10;99.90;;;;;;5020070;28;20022;-65
2023/03/08 00:09:56;;;;;;;9.40;4.88;;;4.00;99.90;;;;;;5019854;28;20022;-66
2023/03/08 00:12:22;;;;;;;9.82;5.32;;;4.00;99.90;;;;;;5018434;28;20026;-66
2023/03/08 00:14:48;;;;;;;8.20;4.57;;;3.90;99.90;;;;;;5019392;28;20026;-66
2023/03/08 00:17:15;;;;;;;7.65;4.68;;;3.90;99.90;;;;;;5019405;28;20059;-66
2023/03/08 00:19:41;;;;;;;10.05;5.10;;;3.90;99.90;;;;;;5018118;28;20030;-65
2023/03/08 00:22:07;;;;;;;8.60;4.70;;;3.90;99.90;;;;;;5018183;28;20028;-66
2023/03/08 00:24:32;;;;;;;9.88;5.03;;;3.90;99.90;;;;;;5017909;28;20030;-66
2023/03/08 00:26:58;;;;;;;10.18;5.60;;;3.90;99.90;;;;;;5018440;28;20033;-66
2023/03/08 00:29:23;;;;;;;10.15;4.90;;;3.90;99.90;;;;;;5018074;28;20026;-66
2023/03/08 00:31:49;;;;;;;10.48;5.63;;;4.00;99.90;;;;;;5018137;28;20022;-66
2023/03/08 00:34:15;;;;;;;8.43;5.22;;;4.00;99.90;;;;;;5018073;28;20026;-66
2023/03/08 00:36:41;;;;;;;11.43;5.38;;;4.00;99.90;;;;;;5018059;28;20033;-66
2023/03/08 00:39:07;;;;;;;7.72;4.88;;;4.00;99.90;;;;;;5017861;28;20030;-67
2023/03/08 00:41:33;;;;;;;10.23;5.22;;;4.00;99.90;;;;;;5018989;28;20030;-67
2023/03/08 00:43:58;;;;;;;9.55;5.47;;;4.00;99.90;;;;;;5018663;28;20025;-66
2023/03/08 00:46:24;;;;;;;9.68;4.90;;;4.00;99.90;;;;;;5018617;28;20030;-66
2023/03/08 00:48:50;;;;;;;9.57;5.32;;;3.90;99.90;;;;;;5017775;28;20061;-66
2023/03/08 00:51:17;;;;;;;12.35;5.63;;;3.80;99.90;;;;;;5017818;28;20148;-66
2023/03/08 00:53:43;;;;;;;9.90;5.13;;;3.80;99.90;;;;;;5018706;28;20070;-66
2023/03/08 00:56:09;;;;;;;12.20;6.03;;;3.80;99.90;;;;;;5018132;28;20057;-66
2023/03/08 00:58:36;;;;;;;9.30;5.18;;;3.80;99.90;;;;;;5018501;28;20021;-66
2023/03/08 01:01:02;;;;;;;11.02;5.25;;;3.80;99.90;;;;;;5018415;28;20072;-66
2023/03/08 01:03:28;;;;;;;11.65;5.20;;;3.90;99.90;;;;;;5017526;28;20026;-66
2023/03/08 01:05:56;;;;;;;9.80;4.93;;;3.80;99.90;;;;;;5018380;28;20029;-66
2023/03/08 01:08:23;;;;;;;10.90;5.68;;;3.90;99.90;;;;;;5017555;28;20021;-67
2023/03/08 01:10:53;;;;;;;10.27;5.25;;;4.00;99.90;;;;;;5018993;28;20029;-66
2023/03/08 01:13:20;;;;;;;10.18;5.40;;;4.00;99.90;;;;;;5018271;28;20033;-66
2023/03/08 01:15:46;;;;;;;12.82;6.25;;;4.00;99.90;;;;;;5017295;28;20094;-66
2023/03/08 01:18:11;;;;;;;12.45;6.53;;;4.10;99.90;;;;;;5018304;28;20134;-66
2023/03/08 01:20:37;;;;;;;11.85;5.93;;;4.10;99.90;;;;;;5019133;28;20030;-66
2023/03/08 01:23:03;;;;;;;9.43;5.00;;;4.10;99.90;;;;;;5018102;28;20025;-66
2023/03/08 01:25:29;;;;;;;9.95;5.28;;;4.10;99.90;;;;;;5018498;28;20018;-66
2023/03/08 01:27:54;;;;;;;12.52;5.45;;;4.10;99.90;;;;;;5018306;28;20018;-66
2023/03/08 01:30:20;;;;;;;11.05;5.90;;;4.10;99.90;;;;;;5018020;28;20022;-66
2023/03/08 01:32:46;;;;;;;9.30;5.30;;;4.00;99.90;;;;;;5017779;28;20021;-66
2023/03/08 01:35:12;;;;;;;9.18;4.75;;;4.00;99.90;;;;;;5017127;28;20101;-66
2023/03/08 01:37:37;;;;;;;10.02;5.00;;;4.10;99.90;;;;;;5018238;28;20030;-66
2023/03/08 01:40:04;;;;;;;8.07;4.47;;;4.00;99.90;;;;;;5018861;28;20029;-66
2023/03/08 01:42:30;;;;;;;8.85;4.55;;;3.90;99.90;;;;;;5017728;28;20029;-66
2023/03/08 01:45:05;;;;;;;8.68;4.75;;;3.90;99.90;;;;;;5018410;28;20029;-66
2023/03/08 01:47:34;;;;;;;9.35;4.70;;;3.90;99.90;;;;;;5018210;28;20067;-66
2023/03/08 01:50:09;;;;;;;8.93;4.25;;;3.90;99.90;;;;;;5016710;28;20056;-66
2023/03/08 01:52:40;;;;;;;8.70;4.57;;;3.80;99.90;;;;;;5017923;28;20033;-66
2023/03/08 01:55:11;;;;;;;8.35;4.50;;;3.80;99.90;;;;;;5017272;28;20033;-66
2023/03/08 01:57:40;;;;;;;7.97;4.10;;;3.80;99.90;;;;;;5017773;28;20113;-67
2023/03/08 02:00:08;;;;;;;7.60;3.75;;;3.80;99.90;;;;;;5016753;28;20032;-65
2023/03/08 02:02:40;;;;;;;14.65;4.32;;;3.80;99.90;;;;;;5016653;28;20047;-66
2023/03/08 02:05:09;;;;;;;10.38;4.07;;;3.70;99.90;;;;;;5017205;28;20026;-66
2023/03/08 02:07:34;;;;;;;8.60;4.30;;;3.70;99.90;;;;;;5016424;28;20033;-66
2023/03/08 02:10:00;;;;;;;8.35;4.95;;;3.70;99.90;;;;;;5017630;28;20057;-66
2023/03/08 02:12:26;;;;;;;10.07;4.88;;;3.70;99.90;;;;;;5018033;28;20022;-65
2023/03/08 02:14:52;;;;;;;9.82;4.63;;;3.60;99.90;;;;;;5017109;28;20083;-66
2023/03/08 02:17:18;;;;;;;9.10;4.38;;;3.50;99.90;;;;;;5016461;28;20093;-66
2023/03/08 02:19:54;;;;;;;8.43;4.55;;;3.50;99.90;;;;;;5016641;28;20053;-66
2023/03/08 02:22:20;;;;;;;12.30;4.82;;;3.50;99.90;;;;;;5017764;28;20076;-66
2023/03/08 02:24:46;;;;;;;12.15;4.70;;;3.50;99.90;;;;;;5017131;28;20030;-66
2023/03/08 02:27:24;;;;;;;7.55;3.75;;;3.50;99.90;;;;;;5016569;28;20030;-66
2023/03/08 02:29:50;;;;;;;6.53;3.15;;;3.50;99.90;;;;;;5016271;28;20113;-66
2023/03/08 02:32:16;;;;;;;8.00;4.38;;;3.60;99.90;;;;;;5016894;28;20061;-66
2023/03/08 02:34:42;;;;;;;7.93;4.28;;;3.50;99.90;;;;;;5016194;28;20030;-66
2023/03/08 02:37:07;;;;;;;9.70;4.78;;;3.40;99.90;;;;;;5017165;28;20026;-66
2023/03/08 02:39:33;;;;;;;12.05;5.63;;;3.30;99.90;;;;;;5016585;28;20026;-66
2023/03/08 02:41:58;;;;;;;10.05;5.30;;;3.10;99.90;;;;;;5016743;28;20022;-66
2023/03/08 02:44:24;;;;;;;8.38;4.78;;;3.10;99.90;;;;;;5016795;28;20018;-66
2023/03/08 02:46:51;;;;;;;8.32;4.43;;;3.10;99.90;;;;;;5019017;28;20076;-66
2023/03/08 02:49:16;;;;;;;10.98;3.90;;;3.10;99.90;;;;;;5019929;28;20034;-66
2023/03/08 02:51:42;;;;;;;6.53;3.13;;;3.30;99.90;;;;;;5019933;28;20026;-66
2023/03/08 02:54:07;;;;;;;5.38;3.40;;;3.40;99.90;;;;;;5020733;28;20022;-66
2023/03/08 02:56:33;;;;;;;6.05;3.08;;;3.40;99.90;;;;;;5019797;28;20096;-66
2023/03/08 02:58:58;;;;;;;5.47;3.08;;;3.50;99.90;;;;;;5020913;28;20034;-66
2023/03/08 03:01:24;;;;;;;5.93;3.50;;;3.50;99.90;;;;;;5019763;28;20099;-66
2023/03/08 03:03:54;;;;;;;4.55;2.67;;;3.50;99.90;;;;;;5019799;28;20060;-66
2023/03/08 03:06:21;;;;;;;6.65;2.78;;;3.50;99.90;;;;;;5021178;28;20057;-66
2023/03/08 03:08:47;;;;;;;6.75;3.72;;;3.40;99.90;;;;;;5020417;28;20136;-66
2023/03/08 03:11:18;;;;;;;7.25;3.35;;;3.40;99.90;;;;;;5020413;28;20135;-66
2023/03/08 03:13:44;;;;;;;6.28;3.53;;;3.40;99.90;;;;;;5020818;28;20077;-66
2023/03/08 03:16:13;;;;;;;5.57;3.00;;;3.50;99.90;;;;;;5020378;28;20111;-66
2023/03/08 03:18:39;;;;;;;6.35;3.00;;;3.50;99.90;;;;;;5019485;28;20026;-66
2023/03/08 03:21:08;;;;;;;6.05;2.97;;;3.50;99.90;;;;;;5020297;28;20030;-65
2023/03/08 03:23:34;;;;;;;7.72;3.33;;;3.40;99.90;;;;;;5020192;28;20053;-65
2023/03/08 03:26:09;;;;;;;6.85;3.05;;;3.30;99.90;;;;;;5019687;28;20026;-66
2023/03/08 03:28:34;;;;;;;8.90;3.00;;;3.20;99.90;;;;;;5019398;28;20018;-66
2023/03/08 03:31:01;;;;;;;7.15;3.55;;;3.10;99.90;;;;;;5019262;28;20086;-65
2023/03/08 03:33:26;;;;;;;6.72;3.10;;;3.00;99.90;;;;;;5019271;28;20026;-66
2023/03/08 03:35:52;;;;;;;7.57;3.85;;;2.90;99.90;;;;;;5019469;28;20040;-66
2023/03/08 03:38:18;;;;;;;8.93;4.10;;;2.90;99.90;;;;;;5020057;28;20022;-66
2023/03/08 03:40:43;;;;;;;8.88;4.70;;;2.90;99.90;;;;;;5018881;28;20032;-66
2023/03/08 03:43:09;;;;;;;7.55;4.40;;;2.90;99.90;;;;;;5018902;28;20025;-66
2023/03/08 03:45:34;;;;;;;9.55;4.03;;;2.90;99.90;;;;;;5019810;28;20033;-66
2023/03/08 03:48:00;;;;;;;9.35;3.92;;;2.90;99.90;;;;;;5020086;28;20065;-66
2023/03/08 03:50:25;;;;;;;9.57;4.85;;;2.80;99.90;;;;;;5019187;28;20064;-66
2023/03/08 03:52:51;;;;;;;10.77;4.28;;;2.90;99.90;;;;;;5019694;28;20022;-66
2023/03/08 03:55:16;;;;;;;7.90;4.32;;;2.80;99.90;;;;;;5020128;28;20026;-66
2023/03/08 03:57:42;;;;;;;8.10;3.90;;;2.60;99.90;;;;;;5018092;28;20037;-66
2023/03/08 04:00:08;;;;;;;9.43;4.53;;;2.60;99.90;;;;;;5019847;28;20168;-66
2023/03/08 04:02:34;;;;;;;7.63;4.03;;;2.70;99.90;;;;;;5018720;28;20029;-66
2023/03/08 04:05:00;;;;;;;8.38;4.18;;;2.60;99.90;;;;;;5018576;28;20026;-66
2023/03/08 04:07:25;;;;;;;11.25;5.10;;;2.60;99.90;;;;;;5019485;28;20049;-66
2023/03/08 04:09:51;;;;;;;11.93;5.28;;;2.50;99.90;;;;;;5019601;28;20026;-66
2023/03/08 04:12:16;;;;;;;10.98;5.20;;;2.40;99.90;;;;;;5018710;28;20025;-66
2023/03/08 04:14:42;;;;;;;11.57;5.13;;;2.50;99.90;;;;;;5018586;28;20037;-66
2023/03/08 04:17:08;;;;;;;12.13;4.75;;;2.50;99.90;;;;;;5018467;28;20116;-66
2023/03/08 04:19:33;;;;;;;13.02;5.68;;;2.40;99.90;;;;;;5018219;28;20092;-66
2023/03/08 04:21:59;;;;;;;12.75;5.95;;;2.40;99.90;;;;;;5018613;28;20026;-65
2023/03/08 04:24:24;;;;;;;14.38;5.90;;;2.30;99.90;;;;;;5018954;28;20030;-66
2023/03/08 04:26:50;;;;;;;18.05;6.50;;;2.30;99.90;;;;;;5018210;28;20080;-66
2023/03/08 04:29:15;;;;;;;17.38;6.68;;;2.30;99.90;;;;;;5018072;28;20117;-66
2023/03/08 04:31:41;;;;;;;12.88;5.88;;;2.30;99.90;;;;;;5019182;28;20030;-66
2023/03/08 04:34:06;;;;;;;13.18;5.60;;;2.30;99.90;;;;;;5019106;28;20105;-66
2023/03/08 04:36:32;;;;;;;16.63;5.88;;;2.50;99.90;;;;;;5018351;28;20069;-66
2023/03/08 04:38:58;;;;;;;11.80;5.63;;;2.50;99.90;;;;;;5017976;28;20080;-66
2023/03/08 04:41:24;;;;;;;15.95;6.88;;;2.40;99.90;;;;;;5019056;28;20028;-66
2023/03/08 04:43:51;;;;;;;16.95;6.38;;;2.40;99.90;;;;;;5018687;28;20083;-66
2023/03/08 04:46:19;;;;;;;9.73;5.10;;;2.50;99.90;;;;;;5017741;28;20033;-66
2023/03/08 04:48:45;;;;;;;10.68;5.07;;;2.40;99.90;;;;;;5018000;28;20065;-66
2023/03/08 04:51:13;;;;;;;11.60;5.35;;;2.30;99.90;;;;;;5017686;28;20022;-66
2023/03/08 04:53:40;;;;;;;11.07;4.53;;;2.40;99.90;;;;;;5017641;28;20022;-66
2023/03/08 04:56:06;;;;;;;16.45;5.40;;;2.30;99.90;;;;;;5018027;28;20033;-66
2023/03/08 04:58:33;;;;;;;9.73;4.70;;;2.20;99.90;;;;;;5018371;28;20034;-66
2023/03/08 05:00:58;;;;;;;15.68;5.80;;;2.30;99.90;;;;;;5017840;28;20018;-66
2023/03/08 05:03:24;;;;;;;8.05;4.40;;;2.50;99.90;;;;;;5017553;28;20037;-66
2023/03/08 05:05:53;;;;;;;7.45;3.13;;;2.40;99.90;;;;;;5017701;28;20025;-66
2023/03/08 05:08:20;;;;;;;8.88;3.28;;;2.20;99.90;;;;;;5018218;28;20053;-66
2023/03/08 05:10:54;;;;;;;9.18;3.63;;;2.10;99.90;;;;;;5017540;28;20025;-66
2023/03/08 05:13:19;;;;;;;10.52;3.42;;;2.20;99.90;;;;;;5018185;28;20025;-66
2023/03/08 05:15:45;;;;;;;7.93;3.00;;;2.30;99.90;;;;;;5018127;28;20032;-66
2023/03/08 05:18:11;;;;;;;9.57;4.00;;;2.20;99.90;;;;;;5017215;28;20030;-66
2023/03/08 05:20:36;;;;;;;5.45;3.17;;;2.30;99.90;;;;;;5017319;28;20184;-66
2023/03/08 05:23:02;;;;;;;6.15;3.13;;;2.20;99.90;;;;;;5017214;28;20037;-66
2023/03/08 05:25:29;;;;;;;4.82;2.47;;;2.30;99.90;;;;;;5017081;28;20044;-66
2023/03/08 05:27:55;;;;;;;6.45;3.05;;;2.30;99.90;;;;;;5017443;28;20033;-66
2023/03/08 05:30:20;;;;;;;6.47;3.40;;;2.20;99.90;;;;;;5017038;28;20022;-66
2023/03/08 05:32:46;;;;;;;8.27;3.05;;;2.30;99.90;;;;;;5018267;28;20090;-65
2023/03/08 05:35:11;;;;;;;7.50;2.95;;;2.50;99.90;;;;;;5017909;28;20058;-65
2023/03/08 05:37:37;;;;;;;6.25;2.90;;;2.60;99.90;;;;;;5017860;28;20026;-65
2023/03/08 05:40:05;;;;;;;9.82;4.28;;;2.70;99.90;;;;;;5017302;28;20036;-65
2023/03/08 05:42:31;;;;;;;8.63;3.45;;;2.70;99.90;;;;;;5017627;28;20077;-66
2023/03/08 05:44:56;;;;;;;11.38;4.13;;;2.70;99.90;;;;;;5017473;28;20053;-66
2023/03/08 05:47:22;;;;;;;12.07;4.30;;;2.50;99.90;;;;;;5016669;28;20029;-66
2023/03/08 05:49:48;;;;;;;9.05;4.68;;;2.60;99.90;;;;;;5076817;22;20040;-66
2023/03/08 05:52:13;;;;;;;10.30;4.75;;;2.50;99.90;;;;;;5078181;28;20024;-66
2023/03/08 05:54:39;;;;;;;10.90;5.10;;;2.50;99.90;;;;;;5078134;28;20027;-66
2023/03/08 05:57:04;;;;;;;8.65;4.35;;;2.60;99.90;;;;;;5078218;28;20045;-66
2023/03/08 05:59:30;;;;;;;12.70;5.07;;;2.60;99.90;;;;;;5077707;28;20020;-66
2023/03/08 06:01:56;;;;;;;14.00;5.38;;;2.60;99.90;;;;;;5078053;28;20016;-66
2023/03/08 06:04:22;;;;;;;12.68;5.25;;;2.40;99.90;;;;;;5095821;28;20028;-66
2023/03/08 06:06:47;;;;;;;11.45;5.50;;;2.40;99.90;;;;;;5079395;28;20027;-66
2023/03/08 06:09:13;;;;;;;12.60;5.47;;;2.50;99.90;;;;;;5079567;28;20030;-66
2023/03/08 06:11:38;;;;;;;15.13;6.78;;;2.60;99.90;;;;;;5079503;28;20024;-66
2023/03/08 06:14:04;;;;;;;12.38;5.75;;;2.50;99.90;;;;;;5079812;28;20055;-66
2023/03/08 06:16:29;;;;;;;13.80;6.07;;;2.60;99.90;;;;;;5079913;28;20028;-66
2023/03/08 06:18:55;;;;;;;15.57;6.47;;;2.50;99.90;;;;;;5079601;28;20069;-66
2023/03/08 06:21:21;;;;;;;18.88;6.82;;;2.60;99.90;;;;;;5079314;28;20078;-66
2023/03/08 06:23:47;;;;;;;11.55;5.85;;;2.70;99.90;;;;;;5079688;28;20031;-66
2023/03/08 06:26:14;;;;;;;17.92;7.22;;;2.70;99.90;;;;;;5080146;28;20028;-66
2023/03/08 06:28:40;;;;;;;17.10;6.30;;;2.50;99.90;;;;;;5079865;28;20088;-67
2023/03/08 06:31:06;;;;;;;13.18;6.22;;;2.60;99.90;;;;;;5079609;28;20112;-66
2023/03/08 06:33:33;;;;;;;20.98;6.88;;;2.70;99.90;;;;;;5079320;28;20016;-66
2023/03/08 06:36:06;;;;;;;12.00;6.28;;;2.80;99.90;;;;;;5079860;28;20027;-66
2023/03/08 06:38:34;;;;;;;14.18;6.38;;;2.90;99.90;;;;;;5079542;28;20020;-66
2023/03/08 06:41:00;;;;;;;16.75;5.97;;;2.70;99.90;;;;;;5079528;28;20024;-66
2023/03/08 06:43:26;;;;;;;15.45;6.15;;;2.50;99.90;;;;;;5080123;28;20024;-66
2023/03/08 06:45:52;;;;;;;12.75;5.70;;;2.50;99.90;;;;;;5078940;28;20036;-67
2023/03/08 06:48:18;;;;;;;9.30;5.03;;;2.70;99.90;;;;;;5079980;28;20016;-66
2023/03/08 06:50:44;;;;;;;13.50;5.85;;;2.90;99.90;;;;;;5078947;28;20036;-66
2023/03/08 06:53:10;;;;;;;12.73;6.05;;;2.60;99.90;;;;;;5079383;28;20027;-66
2023/03/08 06:55:36;;;;;;;16.83;6.88;;;2.40;99.90;;;;;;5079464;28;20024;-66
2023/03/08 06:58:02;;;;;;;13.82;6.63;;;2.30;99.90;;;;;;5078892;28;20021;-66
2023/03/08 07:00:28;;;;;;;12.75;6.10;;;2.20;99.90;;;;;;5079571;28;20060;-66
2023/03/08 07:02:54;;;;;;;13.93;6.15;;;2.40;99.90;;;;;;5079036;28;20032;-66
2023/03/08 07:05:20;;;;;;;11.48;5.75;;;2.60;99.90;;;;;;5079185;28;20020;-66
2023/03/08 07:07:46;;;;;;;17.25;6.45;;;2.70;99.90;;;;;;5079388;28;20016;-66
2023/03/08 07:10:14;;;;;;;14.82;6.60;;;2.50;99.90;;;;;;5079274;28;20043;-66
2023/03/08 07:12:42;;;;;;;24.17;6.53;;;2.20;99.90;;;;;;5078945;28;20020;-67
2023/03/08 07:15:09;;;;;;;15.90;7.50;;;2.00;99.90;;;;;;5079210;28;20024;-66
2023/03/08 07:17:35;;;;;;;12.85;6.07;;;2.00;99.90;;;;;;5079155;28;20031;-65
2023/03/08 07:20:04;;;;;;;16.55;6.00;;;2.20;99.90;;;;;;5079109;28;20024;-66
2023/03/08 07:22:30;;;;;;;16.67;6.40;;;2.10;99.90;;;;;;5079524;28;20035;-67
2023/03/08 07:24:55;;;;;;;12.68;6.30;;;2.10;99.90;;;;;;5078938;28;20024;-67
2023/03/08 07:27:21;;;;;;;11.85;5.63;;;2.00;99.90;;;;;;5079606;28;20103;-67
2023/03/08 07:29:46;;;;;;;14.35;5.90;;;2.30;99.90;;;;;;5079569;28;20027;-67
2023/03/08 07:32:12;;;;;;;10.60;5.40;;;2.40;99.90;;;;;;5079506;28;20035;-66
2023/03/08 07:34:37;;;;;;;15.98;5.75;;;2.20;99.90;;;;;;5082366;28;20024;-66
2023/03/08 07:37:03;;;;;;;14.88;5.90;;;2.20;99.90;;;;;;5082250;28;20016;-66
2023/03/08 07:39:28;;;;;;;15.15;6.25;;;2.20;99.90;;;;;;5082949;28;20024;-66
2023/03/08 07:41:54;;;;;;;13.57;5.95;;;2.30;99.90;;;;;;5082587;28;20024;-66
2023/03/08 07:44:20;;;;;;;12.75;5.75;;;2.50;99.90;;;;;;5082101;28;20024;-66
2023/03/08 07:46:45;;;;;;;15.18;7.05;;;2.70;99.90;;;;;;5082173;28;20027;-66
2023/03/08 07:49:11;;;;;;;15.85;6.03;;;2.80;99.90;;;;;;5082159;28;20084;-66
2023/03/08 07:51:36;;;;;;;14.43;6.35;;;3.00;99.90;;;;;;5082095;28;20016;-66
2023/03/08 07:54:02;;;;;;;16.30;6.70;;;3.00;99.90;;;;;;5081979;28;20109;-65
2023/03/08 07:56:28;;;;;;;16.10;7.18;;;2.90;99.90;;;;;;5081975;28;20020;-65
2023/03/08 07:58:57;;;;;;;16.40;7.05;;;2.80;99.90;;;;;;5081958;28;20032;-65
2023/03/08 08:01:22;;;;;;;16.10;7.25;;;2.90;99.90;;;;;;5081939;28;20020;-65
2023/03/08 08:03:49;;;;;;;21.05;8.52;;;2.90;99.90;;;;;;5082173;28;20028;-66
2023/03/08 08:06:14;;;;;;;17.75;7.72;;;2.80;99.90;;;;;;5081700;28;20028;-65
2023/03/08 08:08:40;;;;;;;22.23;9.27;;;2.60;99.90;;;;;;5082466;28;20054;-65
2023/03/08 08:11:13;;;;;;;16.95;7.88;;;2.60;99.90;;;;;;5081595;28;20030;-65
2023/03/08 08:13:39;;;;;;;16.90;7.80;;;2.70;99.90;;;;;;5099726;28;20016;-66
2023/03/08 08:16:06;;;;;;;17.55;7.95;;;2.70;99.90;;;;;;5082578;28;20024;-66
2023/03/08 08:18:32;;;;;;;15.82;7.85;;;2.70;99.90;;;;;;5081485;28;20044;-66
2023/03/08 08:21:03;;;;;;;18.10;8.45;;;2.80;99.90;;;;;;5081710;28;20031;-66
2023/03/08 08:23:28;;;;;;;16.60;7.97;;;2.70;99.90;;;;;;5081495;28;20032;-66
2023/03/08 08:25:54;;;;;;;16.52;7.30;;;2.60;99.90;;;;;;5081188;28;20039;-66
2023/03/08 08:28:21;;;;;;;15.45;6.80;;;2.70;99.90;;;;;;5099346;28;20016;-66
2023/03/08 08:31:00;;;;;;;23.35;9.63;;;2.60;99.90;;;;;;5081552;28;20025;-65
2023/03/08 08:33:27;;;;;;;17.88;7.70;;;2.50;99.90;;;;;;5081741;28;20020;-66
2023/03/08 08:35:53;;;;;;;21.35;9.05;;;2.40;99.90;;;;;;5081498;28;20032;-66
2023/03/08 08:38:19;;;;;;;19.77;8.07;;;2.30;99.90;;;;;;5080969;28;20031;-66
2023/03/08 08:40:44;;;;;;;19.15;8.32;;;2.40;99.90;;;;;;5081380;28;20031;-65
2023/03/08 08:43:10;;;;;;;15.80;6.95;;;2.30;99.90;;;;;;5080974;28;20061;-65
2023/03/08 08:45:35;;;;;;;16.55;7.35;;;2.20;99.90;;;;;;5080489;28;20027;-65
2023/03/08 08:48:01;;;;;;;16.55;7.93;;;2.10;99.90;;;;;;5098698;28;20066;-65
2023/03/08 08:50:26;;;;;;;14.32;6.78;;;2.20;99.90;;;;;;5080758;28;20063;-65
2023/03/08 08:53:02;;;;;;;15.18;7.35;;;2.10;99.90;;;;;;5080794;28;20070;-65
2023/03/08 08:55:28;;;;;;;13.98;7.13;;;2.10;99.90;;;;;;5081708;28;20024;-65
2023/03/08 08:57:53;;;;;;;15.35;7.72;;;2.10;99.90;;;;;;5080745;28;20024;-65
2023/03/08 09:00:19;;;;;;;16.80;7.75;;;2.10;99.90;;;;;;5080498;28;20073;-65
2023/03/08 09:02:44;;;;;;;15.48;7.22;;;2.20;99.90;;;;;;5081661;28;20028;-65
2023/03/08 09:05:10;;;;;;;17.17;8.30;;;2.30;99.90;;;;;;5080773;28;20076;-65
2023/03/08 09:07:36;;;;;;;17.10;7.65;;;2.30;99.90;;;;;;5081519;28;20020;-65
2023/03/08 09:10:01;;;;;;;14.80;6.85;;;2.30;99.90;;;;;;5098128;28;20016;-65
2023/03/08 09:12:28;;;;;;;27.23;13.00;;;2.30;99.90;;;;;;5080762;28;20020;-65
2023/03/08 09:14:54;;;;;;;20.50;10.77;;;2.20;99.90;;;;;;5098204;28;20038;-66
2023/03/08 09:17:20;;;;;;;23.48;10.85;;;2.10;99.90;;;;;;5080253;28;20028;-66
2023/03/08 09:19:45;;;;;;;37.30;14.68;;;2.10;99.90;;;;;;5080107;28;20054;-66
2023/03/08 09:22:11;;;;;;;19.10;7.82;;;2.20;99.90;;;;;;5080295;28;20078;-66
2023/03/08 09:24:36;;;;;;;24.85;11.57;;;2.30;99.90;;;;;;5080369;28;20028;-66
2023/03/08 09:27:06;;;;;;;17.27;7.95;;;2.30;99.90;;;;;;5080399;28;20111;-66
2023/03/08 09:29:32;;;;;;;16.90;7.97;;;2.30;99.90;;;;;;5079946;28;20016;-66
2023/03/08 09:31:58;;;;;;;14.25;7.03;;;2.20;99.90;;;;;;5080869;28;20049;-66
2023/03/08 09:34:24;;;;;;;14.50;6.53;;;2.50;99.90;;;;;;5080085;28;20107;-66
2023/03/08 09:36:49;;;;;;;18.92;7.07;;;2.50;99.90;;;;;;5080199;28;20031;-66
2023/03/08 09:39:15;;;;;;;12.13;7.07;;;2.70;99.90;;;;;;5080012;28;20092;-66
2023/03/08 09:41:54;;;;;;;11.35;6.47;;;2.60;99.90;;;;;;5079796;28;20028;-67
2023/03/08 09:44:28;;;;;;;11.45;6.47;;;2.60;99.90;;;;;;5097748;28;20082;-67
2023/03/08 09:47:00;;;;;;;13.60;6.85;;;2.70;99.90;;;;;;5080651;28;20055;-67
2023/03/08 09:49:29;;;;;;;14.00;7.40;;;2.90;99.90;;;;;;5079626;28;20038;-67
2023/03/08 09:52:19;;;;;;;12.48;6.40;;;3.10;99.90;;;;;;5080670;28;20085;-67
2023/03/08 09:54:46;;;;;;;14.45;6.55;;;3.10;99.90;;;;;;5097517;28;20070;-67
2023/03/08 09:57:17;;;;;;;14.48;7.47;;;3.10;99.90;;;;;;5078868;28;20031;-67
2023/03/08 09:59:57;;;;;;;13.30;6.57;;;2.90;99.90;;;;;;5080384;28;20146;-67
2023/03/08 10:02:32;;;;;;;12.45;6.57;;;2.90;99.90;;;;;;5079705;28;20101;-67
2023/03/08 10:05:10;;;;;;;11.88;6.90;;;2.80;99.90;;;;;;5097615;28;20028;-67
2023/03/08 10:07:58;;;;;;;13.07;6.88;;;2.70;99.90;;;;;;5097355;28;20020;-67
2023/03/08 10:10:44;;;;;;;15.48;7.38;;;2.70;99.90;;;;;;5079492;28;20020;-67
2023/03/08 10:13:34;;;;;;;13.23;6.55;;;2.60;99.90;;;;;;5079494;28;20016;-67
2023/03/08 10:16:23;;;;;;;14.07;6.75;;;2.80;99.90;;;;;;5097257;28;20035;-67
2023/03/08 10:18:56;;;;;;;12.40;6.10;;;2.80;99.90;;;;;;5080045;28;20078;-66
2023/03/08 10:21:24;;;;;;;11.23;5.68;;;2.80;99.90;;;;;;5079807;28;20047;-67
2023/03/08 10:24:14;;;;;;;10.20;5.95;;;2.80;99.90;;;;;;5097604;28;20054;-67
2023/03/08 10:26:41;;;;;;;13.70;6.00;;;3.00;99.90;;;;;;5079858;28;20029;-67
2023/03/08 10:29:11;;;;;;;9.50;5.07;;;2.80;99.90;;;;;;5079984;28;20024;-67
2023/03/08 10:31:36;;;;;;;11.93;6.15;;;3.00;99.90;;;;;;5080132;28;20021;-67
2023/03/08 10:34:19;;;;;;;8.82;5.00;;;3.10;99.90;;;;;;5081441;28;20020;-67
2023/03/08 10:37:01;;;;;;;11.55;5.00;;;3.20;99.90;;;;;;5097247;28;20032;-67
2023/03/08 10:39:27;;;;;;;9.77;5.15;;;3.20;99.90;;;;;;5096944;28;20024;-67
2023/03/08 10:41:56;;;;;;;9.18;5.53;;;3.10;99.90;;;;;;5079530;28;20085;-67
2023/03/08 10:44:43;;;;;;;13.60;6.22;;;3.00;99.90;;;;;;5097075;28;20028;-67
2023/03/08 10:47:23;;;;;;;10.80;5.55;;;2.90;99.90;;;;;;5096948;28;20224;-67
2023/03/08 10:50:16;;;;;;;9.55;5.53;;;3.00;99.90;;;;;;5075233;28;20386;-67
2023/03/08 10:52:44;;;;;;;10.32;5.78;;;3.40;99.90;;;;;;5074889;28;20029;-67
2023/03/08 10:55:14;;;;;;;13.23;6.40;;;3.00;99.90;;;;;;5073586;28;20056;-67
2023/03/08 10:57:47;;;;;;;11.15;5.93;;;3.10;99.90;;;;;;5074689;28;20107;-67
2023/03/08 11:00:18;;;;;;;13.25;6.60;;;3.00;99.90;;;;;;5073345;28;20104;-67
2023/03/08 11:02:46;;;;;;;13.00;6.90;;;3.00;99.90;;;;;;5074257;28;20024;-67
2023/03/08 11:05:20;;;;;;;11.82;6.90;;;2.90;99.90;;;;;;5074094;28;20025;-67
2023/03/08 11:07:58;;;;;;;13.95;7.38;;;2.70;99.90;;;;;;5073313;28;20025;-67
2023/03/08 11:10:28;;;;;;;14.10;6.80;;;2.80;99.90;;;;;;5073296;28;20021;-67
2023/03/08 11:13:19;;;;;;;18.92;7.97;;;3.00;99.90;;;;;;5073274;28;20023;-68
2023/03/08 11:15:57;;;;;;;12.02;7.07;;;3.20;99.90;;;;;;5074205;28;20021;-67
2023/03/08 11:18:41;;;;;;;16.83;7.43;;;3.30;99.90;;;;;;5073396;28;20031;-67
2023/03/08 11:21:41;;;;;;;13.35;7.18;;;3.30;99.90;;;;;;5072845;28;20025;-67
2023/03/08 11:24:16;;;;;;;16.20;8.25;;;3.30;99.90;;;;;;5060112;28;20039;-67
2023/03/08 11:27:17;;;;;;;15.90;8.13;;;3.40;99.90;;;;;;5073257;28;20028;-67
2023/03/08 11:29:58;;;;;;;17.45;8.55;;;3.20;99.90;;;;;;5072914;28;20028;-66
2023/03/08 11:32:38;;;;;;;16.23;7.72;;;3.20;99.90;;;;;;5074201;28;20017;-67
2023/03/08 11:35:41;;;;;;;15.30;8.57;;;3.40;99.90;;;;;;5072736;28;20025;-66
2023/03/08 11:38:26;;;;;;;17.17;8.82;;;3.30;99.90;;;;;;5073113;28;20029;-66
2023/03/08 11:41:18;;;;;;;22.92;10.20;;;3.20;99.90;;;;;;5073377;28;20060;-66
2023/03/08 11:43:57;;;;;;;;;;;3.10;99.90;;;;;;5073105;28;20031;-66
2023/03/08 11:46:42;;;;;;;16.33;9.10;;;3.10;99.90;;;;;;5073176;28;19909;-66
2023/03/08 11:49:22;;;;;;;17.80;8.85;;;3.10;99.90;;;;;;5087108;22;20036;-65
2023/03/08 11:52:03;;;;;;;16.25;8.65;;;3.20;99.90;;;;;;5032365;28;20038;-66
2023/03/08 11:55:07;;;;;;;21.37;9.30;;;3.40;99.90;;;;;;5016101;28;20049;-66
2023/03/08 11:57:42;;;;;;;20.55;9.57;;;3.50;99.90;;;;;;5032888;28;20198;-66
2023/03/08 12:00:32;;;;;;;14.40;8.02;;;3.30;99.90;;;;;;5026141;28;20032;-66
2023/03/08 12:03:15;;;;;;;19.40;8.95;;;3.50;99.90;;;;;;5019544;28;20034;-65
2023/03/08 12:06:13;;;;;;;15.35;8.55;;;3.50;99.90;;;;;;5002922;28;20037;-65
2023/03/08 12:08:49;;;;;;;16.48;8.00;;;3.60;99.90;;;;;;5019916;28;20033;-65
2023/03/08 12:11:25;;;;;;;18.25;8.55;;;3.50;99.90;;;;;;5020191;28;20088;-66
2023/03/08 12:14:08;;;;;;;19.05;8.80;;;3.40;99.90;;;;;;5003352;28;20026;-65
2023/03/08 12:16:48;;;;;;;21.88;10.18;;;3.40;99.90;;;;;;5002876;28;20026;-65
2023/03/08 12:19:20;;;;;;;18.95;8.77;;;3.30;99.90;;;;;;5019790;28;20037;-65
2023/03/08 12:21:57;;;;;;;20.27;9.35;;;3.40;99.90;;;;;;5019922;28;20030;-65
2023/03/08 12:24:49;;;;;;;20.70;9.65;;;3.40;99.90;;;;;;5019249;28;20041;-65
2023/03/08 12:27:31;;;;;;;15.77;7.80;;;3.40;99.90;;;;;;5002377;28;20030;-65
2023/03/08 12:30:08;;;;;;;17.02;8.38;;;3.60;99.90;;;;;;5019697;28;20148;-65
2023/03/08 12:32:36;;;;;;;16.92;8.55;;;3.70;99.90;;;;;;5018657;28;20044;-65
2023/03/08 12:35:24;;;;;;;15.90;8.43;;;3.40;99.90;;;;;;5002761;28;20048;-65
2023/03/08 12:37:58;;;;;;;14.57;7.55;;;3.30;99.90;;;;;;5019501;28;20045;-65
2023/03/08 12:40:29;;;;;;;14.40;8.48;;;3.50;99.90;;;;;;5002076;28;20029;-65
2023/03/08 12:43:07;;;;;;;17.88;8.90;;;3.60;99.90;;;;;;5019502;28;20017;-65
2023/03/08 12:45:33;;;;;;;17.15;8.90;;;3.50;99.90;;;;;;5001985;28;20022;-65
2023/03/08 12:48:05;;;;;;;15.20;8.02;;;3.40;99.90;;;;;;5001880;28;20022;-66
2023/03/08 12:50:35;;;;;;;17.10;8.93;;;3.60;99.90;;;;;;5018627;28;20030;-66
2023/03/08 12:53:01;;;;;;;13.68;7.65;;;3.80;99.90;;;;;;5018979;28;20081;-67
2023/03/08 12:55:30;;;;;;;15.82;7.95;;;3.90;99.90;;;;;;5001795;28;20022;-67
2023/03/08 12:58:01;;;;;;;14.75;8.52;;;3.80;99.90;;;;;;5001967;28;20098;-67
2023/03/08 13:00:36;;;;;;;15.75;7.75;;;3.90;99.90;;;;;;5018054;28;20088;-67